Time;durP1;ratioP1;P1;durP2;ratioP2;P2;SDS_P1;SDS_P2;PMS_P1;PMS_P2;Temp;Humidity;BMP_temperature;BMP_pressure;BME280_temperature;BME280_humidity;BME280_pressure;Samples;Min_cycle;Max_cycle;Signal;HPM_P1;HPM_P2
2024/03/01 00:02:16;;;;;;;;;;;;;;;13.82;75.50;99959.31;4843436;29;19924;-78
2024/03/01 00:05:05;;;;;;;;;;;;;;;13.75;75.62;99972.81;4843634;29;19917;-78
2024/03/01 00:07:57;;;;;;;;;;;;;;;13.71;75.83;99970.00;4841628;29;19920;-78
2024/03/01 00:10:49;;;;;;;;;;;;;;;13.71;76.18;99970.78;4845238;29;19917;-78
2024/03/01 00:13:41;;;;;;;;;;;;;;;13.76;76.25;99974.41;4843246;29;19924;-78
2024/03/01 00:16:33;;;;;;;;;;;;;;;13.85;75.78;99972.28;4841048;29;19920;-78
2024/03/01 00:19:25;;;;;;;;;;;;;;;13.94;75.89;99970.13;4844087;29;19916;-77
2024/03/01 00:22:17;;;;;;;;;;;;;;;13.96;75.54;99960.44;4842503;29;19920;-78
2024/03/01 00:25:12;;;;;;;;;;;;;;;13.88;76.04;99963.34;4845733;29;19916;-77
2024/03/01 00:28:04;;;;;;;;;;;;;;;13.90;76.16;99966.53;4843127;29;19917;-77
2024/03/01 00:30:56;;;;;;;;;;;;;;;13.93;76.25;99960.34;4846477;29;20379;-79
2024/03/01 00:33:48;;;;;;;;;;;;;;;14.00;76.05;99946.84;4844503;29;19920;-78
2024/03/01 00:36:40;;;;;;;;;;;;;;;13.92;75.82;99945.09;4842429;29;19916;-78
2024/03/01 00:39:32;;;;;;;;;;;;;;;13.96;75.53;99937.78;4839956;29;20387;-77
2024/03/01 00:42:23;;;;;;;;;;;;;;;14.02;75.18;99926.19;4842365;29;19924;-78
2024/03/01 00:45:16;;;;;;;;;;;;;;;14.08;74.78;99918.50;4841794;29;20302;-78
2024/03/01 00:48:14;;;;;;;;;;;;;;;14.19;74.79;99914.06;4845118;29;20302;-77
2024/03/01 00:51:06;;;;;;;;;;;;;;;14.22;74.40;99918.03;4842722;29;19916;-78
2024/03/01 00:53:56;;;;;;;;;;;;;;;14.31;73.69;99910.41;4840828;29;19920;-78
2024/03/01 00:56:48;;;;;;;;;;;;;;;14.29;73.50;99905.28;4844481;29;19920;-79
2024/03/01 00:59:38;;;;;;;;;;;;;;;14.31;73.12;99897.53;4846892;29;19916;-78
2024/03/01 01:02:30;;;;;;;;;;;;;;;14.27;72.85;99898.63;4853244;29;19924;-78
2024/03/01 01:05:22;;;;;;;;;;;;;;;14.28;73.29;99892.75;4850451;29;19916;-77
2024/03/01 01:08:14;;;;;;;;;;;;;;;14.36;73.21;99893.72;4844675;29;19920;-77
2024/03/01 01:11:06;;;;;;;;;;;;;;;14.35;72.85;99892.13;4848350;29;20386;-78
2024/03/01 01:13:55;;;;;;;;;;;;;;;14.39;72.82;99887.53;4846279;29;19920;-78
2024/03/01 01:16:45;;;;;;;;;;;;;;;14.44;71.91;99879.03;4844399;29;19916;-78
2024/03/01 01:19:37;;;;;;;;;;;;;;;14.45;72.00;99873.22;4847651;29;19916;-77
2024/03/01 01:22:26;;;;;;;;;;;;;;;14.39;71.26;99877.38;4845546;29;19925;-76
2024/03/01 01:25:18;;;;;;;;;;;;;;;14.39;71.14;99874.66;4843700;29;19916;-77
2024/03/01 01:28:10;;;;;;;;;;;;;;;14.38;71.79;99875.00;4846904;29;19921;-77
2024/03/01 01:31:02;;;;;;;;;;;;;;;14.31;71.53;99866.66;4844890;29;20308;-76
2024/03/01 01:33:53;;;;;;;;;;;;;;;14.25;71.71;99871.63;4848665;29;19920;-77
2024/03/01 01:36:45;;;;;;;;;;;;;;;14.20;71.12;99871.91;4846208;29;19916;-78
2024/03/01 01:39:37;;;;;;;;;;;;;;;14.20;70.38;99871.09;4843977;29;19916;-77
2024/03/01 01:42:29;;;;;;;;;;;;;;;14.17;69.82;99858.94;4845216;29;20588;-78
2024/03/01 01:45:18;;;;;;;;;;;;;;;14.13;69.29;99856.13;4845453;29;19917;-78
2024/03/01 01:48:11;;;;;;;;;;;;;;;14.06;69.08;99852.47;4843384;29;19954;-78
2024/03/01 01:51:04;;;;;;;;;;;;;;;14.13;69.14;99855.34;4846692;29;19917;-78
2024/03/01 01:53:56;;;;;;;;;;;;;;;14.25;68.64;99846.22;4844610;29;19916;-77
2024/03/01 01:56:45;;;;;;;;;;;;;;;14.24;68.34;99845.41;4847918;29;20375;-77
2024/03/01 01:59:37;;;;;;;;;;;;;;;14.23;68.58;99838.34;4846087;29;19917;-77
2024/03/01 02:02:29;;;;;;;;;;;;;;;14.22;68.95;99836.78;4844049;29;19921;-77
2024/03/01 02:05:21;;;;;;;;;;;;;;;14.20;69.34;99828.16;4847619;29;20298;-78
2024/03/01 02:08:14;;;;;;;;;;;;;;;14.18;69.66;99827.72;4844787;29;19916;-78
2024/03/01 02:11:10;;;;;;;;;;;;;;;14.21;69.44;99827.00;4861650;29;19919;-77
2024/03/01 02:13:57;;;;;;;;;;;;;;;14.18;70.06;99835.13;4864877;29;20302;-78
2024/03/01 02:16:48;;;;;;;;;;;;;;;14.13;70.33;99833.47;4863133;29;19924;-79
2024/03/01 02:19:40;;;;;;;;;;;;;;;14.24;71.48;99844.63;4866709;29;20298;-78
2024/03/01 02:22:31;;;;;;;;;;;;;;;14.34;71.62;99844.84;4862903;29;19920;-78
2024/03/01 02:25:23;;;;;;;;;;;;;;;14.33;71.17;99840.50;4862135;29;19916;-78
2024/03/01 02:28:13;;;;;;;;;;;;;;;14.31;71.21;99823.69;4865145;29;20628;-77
2024/03/01 02:31:05;;;;;;;;;;;;;;;14.28;71.30;99818.91;4863594;29;19916;-77
2024/03/01 02:33:57;;;;;;;;;;;;;;;14.25;72.33;99821.59;4861205;29;19920;-77
2024/03/01 02:36:49;;;;;;;;;;;;;;;14.22;72.17;99825.06;4864708;29;20370;-77
2024/03/01 02:39:41;;;;;;;;;;;;;;;14.16;72.85;99824.56;4856685;29;19920;-77
2024/03/01 02:42:30;;;;;;;;;;;;;;;14.23;73.07;99824.69;4842011;29;19920;-77
2024/03/01 02:45:22;;;;;;;;;;;;;;;14.22;73.00;99836.78;4845496;29;19917;-77
2024/03/01 02:48:09;;;;;;;;;;;;;;;14.21;72.88;99828.94;4843024;29;20302;-78
2024/03/01 02:51:01;;;;;;;;;;;;;;;14.11;73.66;99833.06;4846790;29;19924;-78
2024/03/01 02:53:53;;;;;;;;;;;;;;;14.17;73.15;99820.66;4845318;29;19916;-78
2024/03/01 02:56:45;;;;;;;;;;;;;;;14.11;73.42;99822.13;4848225;29;19916;-77
2024/03/01 02:59:37;;;;;;;;;;;;;;;14.09;73.45;99818.94;4846057;29;20391;-79
2024/03/01 03:02:29;;;;;;;;;;;;;;;14.11;73.61;99819.38;4843880;29;19920;-78
2024/03/01 03:05:20;;;;;;;;;;;;;;;14.11;73.85;99814.72;4841924;29;19916;-78
2024/03/01 03:08:10;;;;;;;;;;;;;;;14.08;73.63;99818.16;4845226;29;19920;-78
2024/03/01 03:11:02;;;;;;;;;;;;;;;14.08;73.47;99804.47;4843326;29;19920;-78
2024/03/01 03:13:54;;;;;;;;;;;;;;;14.02;74.13;99811.38;4846889;29;19916;-78
2024/03/01 03:16:45;;;;;;;;;;;;;;;14.01;74.26;99815.28;4844857;29;19920;-77
2024/03/01 03:19:40;;;;;;;;;;;;;;;13.98;74.95;99820.66;4842661;29;19925;-77
2024/03/01 03:22:31;;;;;;;;;;;;;;;13.98;75.09;99809.72;4843296;29;19921;-77
2024/03/01 03:25:23;;;;;;;;;;;;;;;14.03;75.36;99823.91;4843460;29;19920;-77
2024/03/01 03:28:14;;;;;;;;;;;;;;;14.04;75.29;99814.56;4841418;29;20398;-78
2024/03/01 03:31:06;;;;;;;;;;;;;;;13.96;75.66;99814.78;4844670;29;19916;-78
2024/03/01 03:33:58;;;;;;;;;;;;;;;13.88;75.48;99819.28;4842967;29;19920;-77
2024/03/01 03:36:50;;;;;;;;;;;;;;;13.90;75.85;99827.16;4846216;29;19916;-78
2024/03/01 03:39:42;;;;;;;;;;;;;;;13.66;77.26;99822.75;4844051;29;20452;-78
2024/03/01 03:42:33;;;;;;;;;;;;;;;13.75;77.06;99806.94;4842244;29;20390;-78
2024/03/01 03:45:25;;;;;;;;;;;;;;;13.77;77.27;99812.03;4847131;29;20383;-77
2024/03/01 03:48:17;;;;;;;;;;;;;;;13.86;77.53;99818.09;4843285;29;19920;-78
2024/03/01 03:51:09;;;;;;;;;;;;;;;13.90;77.82;99817.00;4848276;29;19917;-77
2024/03/01 03:54:01;;;;;;;;;;;;;;;13.54;78.99;99814.66;4844483;29;19917;-77
2024/03/01 03:56:55;;;;;;;;;;;;;;;13.75;78.53;99806.94;4842603;29;19917;-77
2024/03/01 03:59:47;;;;;;;;;;;;;;;13.68;77.99;99807.56;4846943;29;19920;-77
2024/03/01 04:02:37;;;;;;;;;;;;;;;13.68;78.99;99807.56;4842624;29;20386;-77
2024/03/01 04:05:29;;;;;;;;;;;;;;;13.76;78.44;99810.47;4846403;29;19924;-78
2024/03/01 04:08:20;;;;;;;;;;;;;;;13.75;78.65;99812.41;4844196;29;20334;-78
2024/03/01 04:11:12;;;;;;;;;;;;;;;13.75;78.22;99806.94;4842691;29;19916;-77
2024/03/01 04:14:04;;;;;;;;;;;;;;;13.63;79.24;99809.78;4846219;29;20306;-78
2024/03/01 04:16:56;;;;;;;;;;;;;;;13.72;78.52;99810.38;4844404;29;19916;-77
2024/03/01 04:19:48;;;;;;;;;;;;;;;13.76;78.28;99810.47;4846349;29;19917;-77
2024/03/01 04:22:40;;;;;;;;;;;;;;;13.74;79.34;99805.34;4841661;29;19925;-77
2024/03/01 04:25:32;;;;;;;;;;;;;;;13.65;80.35;99808.28;4846650;29;19920;-77
2024/03/01 04:28:30;;;;;;;;;;;;;;;13.74;79.67;99807.28;4841155;29;20387;-77
2024/03/01 04:31:21;;;;;;;;;;;;;;;13.73;80.90;99800.22;4844715;29;19917;-77
2024/03/01 04:34:13;;;;;;;;;;;;;;;13.63;80.29;99807.06;4842858;29;19916;-77
2024/03/01 04:37:03;;;;;;;;;;;;;;;13.58;81.12;99805.41;4843788;29;19920;-77
2024/03/01 04:39:55;;;;;;;;;;;;;;;13.37;81.21;99801.41;4843868;29;20322;-77
2024/03/01 04:42:47;;;;;;;;;;;;;;;13.21;81.95;99798.69;4827196;29;19925;-78
2024/03/01 04:45:36;;;;;;;;;;;;;;;13.10;81.80;99794.91;4830625;29;19916;-77
2024/03/01 04:48:29;;;;;;;;;;;;;;;13.29;81.56;99789.53;4825413;29;19928;-77
2024/03/01 04:51:22;;;;;;;;;;;;;;;13.24;80.89;99796.06;4826788;29;19920;-77
2024/03/01 04:54:14;;;;;;;;;;;;;;;13.33;81.47;99790.41;4829721;29;19917;-77
2024/03/01 04:57:09;;;;;;;;;;;;;;;13.32;81.62;99791.53;4827980;29;20379;-77
2024/03/01 05:00:02;;;;;;;;;;;;;;;13.40;80.84;99784.31;4825595;29;19917;-77
2024/03/01 05:02:54;;;;;;;;;;;;;;;13.40;79.97;99782.38;4828763;29;19924;-77
2024/03/01 05:05:46;;;;;;;;;;;;;;;13.46;79.72;99761.81;4844376;29;19924;-77
2024/03/01 05:08:33;;;;;;;;;;;;;;;13.53;79.13;99775.63;4835321;29;19920;-77
2024/03/01 05:11:25;;;;;;;;;;;;;;;13.61;79.11;99771.88;4846633;29;19917;-77
2024/03/01 05:14:16;;;;;;;;;;;;;;;13.59;78.44;99771.47;4844696;29;20395;-77
2024/03/01 05:17:08;;;;;;;;;;;;;;;13.56;78.14;99766.72;4847718;29;19917;-77
2024/03/01 05:20:00;;;;;;;;;;;;;;;13.46;78.50;99770.00;4844775;29;19916;-77
2024/03/01 05:22:50;;;;;;;;;;;;;;;13.46;78.70;99764.53;4841261;29;19932;-77
2024/03/01 05:25:42;;;;;;;;;;;;;;;13.42;78.74;99766.41;4847155;29;20302;-77
2024/03/01 05:28:34;;;;;;;;;;;;;;;13.36;78.98;99751.44;4844529;29;19916;-76
2024/03/01 05:31:25;;;;;;;;;;;;;;;13.38;78.98;99760.09;4847557;29;19920;-77
2024/03/01 05:34:17;;;;;;;;;;;;;;;13.35;79.11;99770.94;4846035;29;19925;-77
2024/03/01 05:37:09;;;;;;;;;;;;;;;13.24;79.54;99757.03;4844223;29;20306;-77
2024/03/01 05:39:59;;;;;;;;;;;;;;;13.24;79.79;99757.03;4846908;29;19916;-77
2024/03/01 05:42:50;;;;;;;;;;;;;;;13.23;79.36;99760.91;4843610;29;19920;-76
2024/03/01 05:45:42;;;;;;;;;;;;;;;13.24;79.63;99765.25;4847577;29;19920;-77
2024/03/01 05:48:34;;;;;;;;;;;;;;;13.33;79.27;99751.38;4842354;29;19916;-77
2024/03/01 05:51:26;;;;;;;;;;;;;;;13.36;79.08;99756.91;4843732;29;20314;-77
2024/03/01 05:54:18;;;;;;;;;;;;;;;13.36;78.83;99756.91;4848033;29;19920;-77
2024/03/01 05:57:10;;;;;;;;;;;;;;;13.39;79.05;99764.41;4846565;29;20391;-76
2024/03/01 06:00:14;;;;;;;;;;;;;;;13.39;78.41;99750.75;4843731;29;19920;-77
2024/03/01 06:03:08;;;;;;;;;;;;;;;13.29;78.64;99751.31;4843115;29;19925;-77
2024/03/01 06:06:00;;;;;;;;;;;;;;;13.28;79.14;99752.44;4844644;29;20375;-77
2024/03/01 06:08:52;;;;;;;;;;;;;;;13.24;78.85;99754.31;4847644;29;19920;-78
2024/03/01 06:11:44;;;;;;;;;;;;;;;13.26;79.05;99752.00;4845690;29;19916;-77
2024/03/01 06:14:36;;;;;;;;;;;;;;;13.09;79.04;99764.09;4843739;29;19916;-78
2024/03/01 06:17:26;;;;;;;;;;;;;;;12.68;81.35;99754.53;4847239;29;19916;-79
2024/03/01 06:20:18;;;;;;;;;;;;;;;12.62;82.06;99750.50;4845048;29;19924;-76
2024/03/01 06:23:15;;;;;;;;;;;;;;;12.53;83.15;99754.53;4841312;29;19924;-77
2024/03/01 06:26:07;;;;;;;;;;;;;;;12.60;84.22;99755.50;4845257;29;19916;-77
2024/03/01 06:28:58;;;;;;;;;;;;;;;12.54;83.68;99756.13;4843644;29;19920;-77
2024/03/01 06:31:50;;;;;;;;;;;;;;;12.51;83.26;99757.59;4846094;29;19916;-77
2024/03/01 06:34:40;;;;;;;;;;;;;;;12.20;83.90;99747.47;4845177;29;19921;-78
2024/03/01 06:37:32;;;;;;;;;;;;;;;12.07;85.75;99745.94;4842969;29;19917;-77
2024/03/01 06:40:23;;;;;;;;;;;;;;;12.11;86.73;99746.03;4848536;29;20402;-77
2024/03/01 06:43:15;;;;;;;;;;;;;;;12.11;86.19;99752.28;4842408;29;20406;-77
2024/03/01 06:46:07;;;;;;;;;;;;;;;12.25;86.96;99746.41;4847939;29;19920;-76
2024/03/01 06:48:59;;;;;;;;;;;;;;;12.48;86.30;99747.41;4849972;29;19939;-79
2024/03/01 06:51:48;;;;;;;;;;;;;;;12.69;84.85;99747.94;4848928;29;19916;-76
2024/03/01 06:54:41;;;;;;;;;;;;;;;12.94;83.09;99761.38;4857398;29;19924;-76
2024/03/01 06:57:33;;;;;;;;;;;;;;;12.88;82.83;99758.13;4850390;29;19920;-77
2024/03/01 07:00:25;;;;;;;;;;;;;;;12.61;83.32;99757.09;4849247;29;20306;-77
2024/03/01 07:03:20;;;;;;;;;;;;;;;12.55;83.71;99755.75;4839355;29;19921;-77
2024/03/01 07:06:15;;;;;;;;;;;;;;;12.34;84.53;99752.50;4843277;29;20399;-77
2024/03/01 07:09:07;;;;;;;;;;;;;;;12.25;86.08;99747.19;4839683;29;19920;-77
2024/03/01 07:11:59;;;;;;;;;;;;;;;12.23;86.72;99754.97;4842395;29;20306;-77
2024/03/01 07:14:51;;;;;;;;;;;;;;;12.37;87.05;99754.53;4840899;29;19916;-77
2024/03/01 07:17:43;;;;;;;;;;;;;;;12.38;86.36;99751.47;4843058;29;19920;-76
2024/03/01 07:20:35;;;;;;;;;;;;;;;12.24;87.13;99744.84;4844059;29;20633;-77
2024/03/01 07:23:27;;;;;;;;;;;;;;;12.35;87.14;99751.34;4842186;29;20306;-77
2024/03/01 07:26:19;;;;;;;;;;;;;;;12.51;86.19;99741.25;4851891;29;19920;-78
2024/03/01 07:29:14;;;;;;;;;;;;;;;12.62;84.99;99742.31;4850165;29;19920;-76
2024/03/01 07:32:06;;;;;;;;;;;;;;;12.49;85.43;99748.22;4847254;29;19920;-77
2024/03/01 07:34:58;;;;;;;;;;;;;;;12.46;87.10;99752.41;4847536;29;20314;-77
2024/03/01 07:37:50;;;;;;;;;;;;;;;12.56;85.79;99749.16;4843872;29;19917;-77
2024/03/01 07:40:42;;;;;;;;;;;;;;;12.60;85.79;99747.31;4843355;29;19916;-77
2024/03/01 07:43:34;;;;;;;;;;;;;;;12.51;85.48;99752.16;4841984;29;19924;-77
2024/03/01 07:46:26;;;;;;;;;;;;;;;12.45;85.41;99753.56;4841526;29;19920;-77
2024/03/01 07:49:22;;;;;;;;;;;;;;;12.46;85.25;99752.41;4844723;29;19917;-77
2024/03/01 07:52:14;;;;;;;;;;;;;;;12.63;84.98;99748.56;4840523;29;19924;-77
2024/03/01 07:55:06;;;;;;;;;;;;;;;12.90;83.96;99758.56;4834968;29;19916;-78
2024/03/01 07:58:03;;;;;;;;;;;;;;;12.86;84.57;99755.75;4840986;29;19920;-76
2024/03/01 08:00:55;;;;;;;;;;;;;;;12.89;85.83;99762.44;4842918;29;19920;-78
2024/03/01 08:03:47;;;;;;;;;;;;;;;12.67;85.83;99758.41;4841870;29;19925;-77
2024/03/01 08:06:36;;;;;;;;;;;;;;;12.78;86.02;99764.91;4840573;29;19920;-76
2024/03/01 08:09:34;;;;;;;;;;;;;;;12.79;85.63;99768.44;4840708;29;19928;-77
2024/03/01 08:12:27;;;;;;;;;;;;;;;12.80;85.49;99775.47;4843119;29;20374;-77
2024/03/01 08:15:23;;;;;;;;;;;;;;;12.86;85.03;99776.78;4841293;29;19916;-77
2024/03/01 08:18:18;;;;;;;;;;;;;;;12.96;85.02;99776.25;4844075;29;19916;-77
2024/03/01 08:21:13;;;;;;;;;;;;;;;13.03;84.60;99776.44;4839849;29;20374;-77
2024/03/01 08:24:03;;;;;;;;;;;;;;;13.19;83.73;99779.16;4838327;29;19924;-79
2024/03/01 08:26:54;;;;;;;;;;;;;;;13.32;82.89;99783.34;4842555;29;19916;-77
2024/03/01 08:29:46;;;;;;;;;;;;;;;13.27;82.94;99786.34;4842190;29;19920;-76
2024/03/01 08:32:45;;;;;;;;;;;;;;;13.11;84.39;99780.09;4840622;29;19920;-78
2024/03/01 08:35:37;;;;;;;;;;;;;;;12.89;84.52;99783.47;4839134;29;19916;-78
2024/03/01 08:38:45;;;;;;;;;;;;;;;12.85;85.09;99780.66;4840386;29;19917;-77
2024/03/01 08:41:37;;;;;;;;;;;;;;;12.82;85.15;99787.63;4844387;29;19917;-77
2024/03/01 08:44:30;;;;;;;;;;;;;;;12.78;86.43;99783.22;4842157;29;19920;-77
2024/03/01 08:47:26;;;;;;;;;;;;;;;12.90;85.68;99779.63;4845119;29;19916;-78
2024/03/01 08:50:18;;;;;;;;;;;;;;;13.03;85.55;99783.81;4843160;29;19916;-78
2024/03/01 08:53:27;;;;;;;;;;;;;;;13.07;85.41;99790.94;4836227;29;19921;-78
2024/03/01 08:56:20;;;;;;;;;;;;;;;13.31;84.54;99792.69;4843101;29;19940;-77
2024/03/01 08:59:28;;;;;;;;;;;;;;;13.43;83.41;99794.50;4837735;29;19917;-78
2024/03/01 09:02:30;;;;;;;;;;;;;;;13.42;82.94;99792.91;4841704;29;19917;-78
2024/03/01 09:05:25;;;;;;;;;;;;;;;13.44;82.58;99783.25;4839825;29;19924;-78
2024/03/01 09:08:15;;;;;;;;;;;;;;;13.53;83.35;99797.47;4841285;29;20410;-78
2024/03/01 09:11:07;;;;;;;;;;;;;;;13.64;81.49;99792.25;4842920;29;19920;-78
2024/03/01 09:13:59;;;;;;;;;;;;;;;13.75;81.32;99789.75;4840816;29;19916;-79
2024/03/01 09:16:51;;;;;;;;;;;;;;;13.75;81.34;99792.47;4839335;29;19916;-78
2024/03/01 09:19:46;;;;;;;;;;;;;;;13.71;82.11;99797.88;4846245;29;19916;-78
2024/03/01 09:22:38;;;;;;;;;;;;;;;13.92;80.56;99798.28;4843611;29;19916;-78
2024/03/01 09:25:46;;;;;;;;;;;;;;;13.94;80.35;99797.94;4845188;29;19971;-78
2024/03/01 09:28:37;;;;;;;;;;;;;;;14.15;79.02;99798.38;4837216;29;19920;-78
2024/03/01 09:31:29;;;;;;;;;;;;;;;14.08;79.53;99793.53;4847146;29;19924;-78
2024/03/01 09:34:21;;;;;;;;;;;;;;;14.16;79.65;99793.69;4845058;29;19917;-78
2024/03/01 09:37:18;;;;;;;;;;;;;;;13.95;80.01;99796.78;4848545;29;19920;-78
2024/03/01 09:40:25;;;;;;;;;;;;;;;13.57;81.92;99792.88;4849604;29;19917;-79
2024/03/01 09:43:17;;;;;;;;;;;;;;;13.96;82.89;99792.91;4843040;29;19921;-78
2024/03/01 09:46:16;;;;;;;;;;;;;;;14.24;82.03;99801.66;4846648;29;19916;-79
2024/03/01 09:49:21;;;;;;;;;;;;;;;14.44;79.67;99800.50;4844191;29;19920;-79
2024/03/01 09:52:20;;;;;;;;;;;;;;;14.31;78.58;99790.88;4845878;29;19920;-78
2024/03/01 09:55:31;;;;;;;;;;;;;;;14.27;78.45;99800.97;4844692;29;20516;-78
2024/03/01 09:58:28;;;;;;;;;;;;;;;14.19;77.21;99796.50;4847340;29;19920;-79
2024/03/01 10:01:22;;;;;;;;;;;;;;;14.08;77.02;99792.75;4845002;29;19917;-78
2024/03/01 10:04:20;;;;;;;;;;;;;;;13.99;76.86;99792.97;4847974;29;19920;-79
2024/03/01 10:07:18;;;;;;;;;;;;;;;13.92;76.71;99786.56;4844297;29;19920;-78
2024/03/01 10:10:29;;;;;;;;;;;;;;;13.89;75.87;99792.75;4843547;29;19916;-78
2024/03/01 10:13:41;;;;;;;;;;;;;;;13.84;76.49;99793.06;4842709;29;20306;-77
2024/03/01 10:16:46;;;;;;;;;;;;;;;13.84;77.11;99787.59;4835887;29;20371;-78
2024/03/01 10:19:38;;;;;;;;;;;;;;;13.80;77.62;99792.19;4845500;29;19917;-78
2024/03/01 10:22:47;;;;;;;;;;;;;;;13.75;77.82;99787.00;4843779;29;19920;-77
2024/03/01 10:25:51;;;;;;;;;;;;;;;13.74;77.18;99790.88;4846450;29;20302;-77
2024/03/01 10:29:01;;;;;;;;;;;;;;;13.62;77.97;99787.13;4843256;29;19916;-77
2024/03/01 10:32:13;;;;;;;;;;;;;;;13.65;78.61;99788.38;4846289;29;19924;-77
2024/03/01 10:35:19;;;;;;;;;;;;;;;13.54;78.72;99784.63;4843201;29;19920;-77
2024/03/01 10:38:07;;;;;;;;;;;;;;;13.81;78.47;99782.84;4845544;29;19920;-78
2024/03/01 10:41:16;;;;;;;;;;;;;;;13.62;78.45;99781.66;4843919;29;19916;-77
2024/03/01 10:44:08;;;;;;;;;;;;;;;13.49;79.44;99782.97;4846401;29;20338;-77
2024/03/01 10:47:06;;;;;;;;;;;;;;;13.45;79.83;99778.56;4844497;29;20303;-77
2024/03/01 10:50:12;;;;;;;;;;;;;;;13.43;79.69;99783.59;4842108;29;19917;-78
2024/03/01 10:53:09;;;;;;;;;;;;;;;13.35;80.15;99776.41;4842727;29;19916;-77
2024/03/01 10:56:03;;;;;;;;;;;;;;;13.32;80.21;99777.88;4842728;29;19916;-77
2024/03/01 10:58:56;;;;;;;;;;;;;;;13.42;80.23;99777.34;4845587;29;19916;-77
2024/03/01 11:01:52;;;;;;;;;;;;;;;13.51;80.20;99774.41;4841741;29;19924;-78
2024/03/01 11:04:47;;;;;;;;;;;;;;;13.49;79.83;99774.78;4844189;29;19924;-78
2024/03/01 11:08:03;;;;;;;;;;;;;;;13.45;79.91;99773.13;4839455;29;20490;-78
2024/03/01 11:11:07;;;;;;;;;;;;;;;13.41;80.18;99769.53;4837481;29;20295;-78
2024/03/01 11:13:56;;;;;;;;;;;;;;;13.42;80.23;99766.41;4843442;29;19924;-78
2024/03/01 11:16:49;;;;;;;;;;;;;;;13.40;81.12;99767.94;4837306;29;19917;-78
2024/03/01 11:19:43;;;;;;;;;;;;;;;13.40;80.94;99767.94;4845881;29;19916;-79
2024/03/01 11:22:36;;;;;;;;;;;;;;;13.45;81.15;99762.97;4836801;29;20475;-79
2024/03/01 11:25:30;;;;;;;;;;;;;;;13.45;81.26;99764.91;4846754;29;19924;-79
2024/03/01 11:28:22;;;;;;;;;;;;;;;13.51;81.22;99766.22;4844770;29;20305;-78
2024/03/01 11:31:20;;;;;;;;;;;;;;;13.53;80.73;99764.69;4842643;29;20402;-78
2024/03/01 11:34:15;;;;;;;;;;;;;;;13.58;80.59;99758.16;4846037;29;19916;-78
2024/03/01 11:37:28;;;;;;;;;;;;;;;13.60;80.78;99758.59;4843816;29;19917;-79
2024/03/01 11:40:26;;;;;;;;;;;;;;;13.70;80.59;99756.09;4846054;29;19920;-79
2024/03/01 11:43:23;;;;;;;;;;;;;;;13.80;79.65;99749.25;4841530;29;19920;-79
2024/03/01 11:46:37;;;;;;;;;;;;;;;13.82;79.48;99748.88;4841111;29;20406;-79
2024/03/01 11:49:37;;;;;;;;;;;;;;;13.84;78.82;99747.38;4843777;29;19920;-79
2024/03/01 11:52:41;;;;;;;;;;;;;;;13.83;78.79;99750.47;4841561;29;19924;-79
2024/03/01 11:55:45;;;;;;;;;;;;;;;13.82;78.60;99743.41;4837235;29;19916;-79
2024/03/01 11:58:53;;;;;;;;;;;;;;;13.83;78.05;99745.81;4830601;29;20295;-79
2024/03/01 12:01:58;;;;;;;;;;;;;;;13.74;78.80;99747.16;4844182;29;19920;-79
2024/03/01 12:04:47;;;;;;;;;;;;;;;13.67;79.39;99750.53;4840271;29;19920;-79
2024/03/01 12:07:43;;;;;;;;;;;;;;;13.57;79.64;99740.97;4836451;29;19920;-79
2024/03/01 12:10:40;;;;;;;;;;;;;;;13.55;79.70;99740.56;4841598;29;19916;-78
2024/03/01 12:13:31;;;;;;;;;;;;;;;13.48;80.64;99737.69;4840447;29;19920;-79
2024/03/01 12:16:28;;;;;;;;;;;;;;;13.46;80.61;99734.50;4840229;29;19916;-79
2024/03/01 12:19:21;;;;;;;;;;;;;;;13.54;79.89;99733.50;4839064;29;19928;-79
2024/03/01 12:22:17;;;;;;;;;;;;;;;13.58;79.24;99730.84;4841609;29;20394;-79
2024/03/01 12:25:04;;;;;;;;;;;;;;;13.61;79.48;99733.63;4842698;29;19924;-79
2024/03/01 12:28:08;;;;;;;;;;;;;;;13.61;79.86;99727.41;4840516;29;19920;-79
2024/03/01 12:31:15;;;;;;;;;;;;;;;13.68;80.06;99728.34;4843679;29;19916;-80
2024/03/01 12:34:23;;;;;;;;;;;;;;;13.66;80.14;99725.16;4837809;29;19920;-79
2024/03/01 12:37:15;;;;;;;;;;;;;;;13.63;80.13;99722.38;4844213;29;20303;-79
2024/03/01 12:40:20;;;;;;;;;;;;;;;13.66;78.45;99727.13;4842084;29;20116;-80
2024/03/01 12:43:24;;;;;;;;;;;;;;;13.70;77.77;99725.25;4840961;29;19920;-78
2024/03/01 12:46:32;;;;;;;;;;;;;;;13.67;77.08;99726.75;4841835;29;19917;-79
2024/03/01 12:49:45;;;;;;;;;;;;;;;13.70;76.78;99726.03;4844168;29;19916;-79
2024/03/01 12:52:37;;;;;;;;;;;;;;;13.65;77.45;99722.81;4845517;29;19920;-77
2024/03/01 12:55:32;;;;;;;;;;;;;;;13.64;76.37;99727.47;4844822;29;19917;-79
2024/03/01 12:58:38;;;;;;;;;;;;;;;13.66;76.91;99727.13;4845090;29;20387;-79
2024/03/01 13:01:30;;;;;;;;;;;;;;;13.63;76.81;99725.88;4848909;29;19916;-78
2024/03/01 13:04:37;;;;;;;;;;;;;;;13.60;77.18;99725.81;4845877;29;19924;-79
2024/03/01 13:07:30;;;;;;;;;;;;;;;13.52;77.42;99718.63;4844108;29;19921;-79
2024/03/01 13:10:23;;;;;;;;;;;;;;;13.44;78.23;99723.16;4847632;29;19916;-78
2024/03/01 13:13:33;;;;;;;;;;;;;;;13.49;78.38;99728.34;4844393;29;19916;-78
2024/03/01 13:16:25;;;;;;;;;;;;;;;13.49;78.05;99728.34;4847679;29;19916;-79
2024/03/01 13:19:26;;;;;;;;;;;;;;;13.46;77.85;99717.34;4843737;29;19916;-80
2024/03/01 13:22:19;;;;;;;;;;;;;;;13.45;77.90;99724.75;4846531;29;20306;-80
2024/03/01 13:25:31;;;;;;;;;;;;;;;13.47;77.44;99722.44;4846648;29;19924;-79
2024/03/01 13:28:27;;;;;;;;;;;;;;;13.48;77.44;99718.56;4843886;29;19932;-78
2024/03/01 13:31:22;;;;;;;;;;;;;;;13.50;77.52;99718.22;4840113;29;19924;-79
2024/03/01 13:34:15;;;;;;;;;;;;;;;13.47;77.95;99722.44;4844926;29;19920;-79
2024/03/01 13:37:22;;;;;;;;;;;;;;;13.52;77.84;99716.69;4851986;29;19916;-79
2024/03/01 13:40:14;;;;;;;;;;;;;;;13.55;77.79;99715.19;4859974;29;19920;-79
2024/03/01 13:43:12;;;;;;;;;;;;;;;13.58;77.74;99709.00;4851363;29;19916;-79
2024/03/01 13:46:14;;;;;;;;;;;;;;;13.62;76.96;99710.66;4848459;29;19925;-79
2024/03/01 13:49:09;;;;;;;;;;;;;;;13.59;76.95;99714.09;4853022;29;19917;-80
2024/03/01 13:52:02;;;;;;;;;;;;;;;13.58;76.77;99717.97;4845871;29;19916;-80
2024/03/01 13:54:53;;;;;;;;;;;;;;;13.62;76.49;99710.66;4838601;29;19916;-80
2024/03/01 13:57:43;;;;;;;;;;;;;;;13.60;76.82;99712.16;4853788;29;19920;-80
2024/03/01 14:00:35;;;;;;;;;;;;;;;13.63;76.77;99714.16;4835477;29;19920;-79
2024/03/01 14:03:27;;;;;;;;;;;;;;;13.57;76.45;99710.94;4845478;29;19916;-79
2024/03/01 14:06:19;;;;;;;;;;;;;;;13.60;77.08;99720.38;4849040;29;19920;-80
2024/03/01 14:09:20;;;;;;;;;;;;;;;13.60;76.52;99715.69;4852758;29;19916;-79
2024/03/01 14:12:13;;;;;;;;;;;;;;;13.62;76.33;99720.78;4863849;29;19916;-78
2024/03/01 14:15:07;;;;;;;;;;;;;;;13.63;76.56;99722.38;4864291;29;19920;-79
2024/03/01 14:17:57;;;;;;;;;;;;;;;13.65;75.96;99725.53;4861604;29;19920;-78
2024/03/01 14:20:50;;;;;;;;;;;;;;;13.66;75.70;99719.69;4865176;29;19916;-79
2024/03/01 14:23:45;;;;;;;;;;;;;;;13.64;75.46;99722.00;4837677;29;20386;-79
2024/03/01 14:26:37;;;;;;;;;;;;;;;13.60;75.61;99715.69;4841828;29;19916;-78
2024/03/01 14:29:29;;;;;;;;;;;;;;;13.62;75.11;99718.84;4844949;29;19916;-78
2024/03/01 14:32:23;;;;;;;;;;;;;;;13.64;75.64;99721.22;4840983;29;19916;-79
2024/03/01 14:35:24;;;;;;;;;;;;;;;13.67;75.53;99721.28;4838983;29;19916;-80
2024/03/01 14:38:15;;;;;;;;;;;;;;;13.65;75.68;99720.06;4845058;29;19920;-79
2024/03/01 14:41:07;;;;;;;;;;;;;;;13.65;76.00;99709.16;4838969;29;20386;-78
2024/03/01 14:43:59;;;;;;;;;;;;;;;13.67;75.56;99724.00;4852265;29;20322;-79
2024/03/01 14:46:51;;;;;;;;;;;;;;;13.64;75.50;99724.75;4853076;29;19920;-80
2024/03/01 14:49:43;;;;;;;;;;;;;;;13.71;75.53;99724.88;4861598;29;20577;-79
2024/03/01 14:52:32;;;;;;;;;;;;;;;13.71;75.82;99733.06;4849653;29;19935;-78
2024/03/01 14:55:27;;;;;;;;;;;;;;;13.73;75.15;99726.47;4841211;29;19916;-79
2024/03/01 14:58:19;;;;;;;;;;;;;;;13.77;75.40;99732.78;4845525;29;19921;-79
2024/03/01 15:01:11;;;;;;;;;;;;;;;13.77;74.72;99728.09;4845954;29;19916;-79
2024/03/01 15:04:06;;;;;;;;;;;;;;;13.80;74.98;99732.06;4854990;29;19920;-79
2024/03/01 15:06:58;;;;;;;;;;;;;;;13.79;74.63;99735.94;4836770;29;19917;-79
2024/03/01 15:09:49;;;;;;;;;;;;;;;13.80;74.39;99734.81;4839190;29;19924;-79